General Aviation Weather

Text Reports

Enter one or more of the following location identifiers separated by a space:

Zip Code, Four-Character ICAO or Three-Character IATA airport codes.

METAR - Aviation Routine Weather Report
OIBL - Bandar Lengeh,
Updated at 6:00 PM GMT on December 20, 2014 (9:30 PM IRST):
METAR OIBL 201800Z 33004KT 8000 SKC 19/13 Q1018
TAF - Terminal Area Forecast
OIBL - Bandar Lengeh,
Updated at 6:00 PM GMT on December 20, 2014 (9:30 PM IRST):
No TAF is currently available for this location.
Decoded:
No decoded TAF is available.
PIREP - Pilot Weather Report
OIBL - Bandar Lengeh,
Updated at 6:00 PM GMT on December 20, 2014 (9:30 PM IRST):
No PIREP is currently available for this location.
AIRMET - Airmens Meteorological Information
OIBL - Bandar Lengeh,
Updated at 6:00 PM GMT on December 20, 2014 (9:30 PM IRST):
No AIRMET is currently available for this location.
SIGMET - Significant Meteorological Information
OIBL - Bandar Lengeh,
Updated at 6:00 PM GMT on December 20, 2014 (9:30 PM IRST):
No SIGMET is currently available for this location.
NOTAM - Notice to Airmen
OIBL - Bandar Lengeh,
Updated at 6:00 PM GMT on December 20, 2014 (9:30 PM IRST):
No NOTAM is currently available for this location.
Forecast Area
OIBL - Bandar Lengeh,
Updated at 6:00 PM GMT on December 20, 2014 (9:30 PM IRST):
No NOTAM is currently available for this location.
Aviation Weather Maps